Aviation Digital Data Service (ADDS)

Output produced by METARs form (2310 UTC 15 August 2018)
found at http://www.aviationweather.gov/adds/metars/
 
TAF KDAA 151700Z 1517/1623 29009KT 9999 SKC QNH3000INS 
     BECMG 1606/1607 21009KT 9999 FEW060 QNH3005INS TX31/1520Z TN20/1610Z
       
KDAB 151759Z 1518/1618 09009KT P6SM FEW040 SCT250 
     FM160000 14004KT P6SM FEW025 
     FM161400 15005KT P6SM SCT025
       
KDAG 151741Z 1518/1618 25009KT P6SM FEW150 
     FM152000 07009KT P6SM VCTS SCT120CB SCT200 
     FM160100 24012KT P6SM FEW120
       
KDAL 152050Z 1521/1618 20011KT P6SM FEW060
       
KDAN 151739Z 1518/1618 VRB03KT P6SM SCT040 BKN250 
     TEMPO 1609/1612 5SM BR
       
KDAY 152059Z 1521/1618 25008KT P6SM VCTS SCT030CB BKN100 OVC140 
     TEMPO 1521/1523 VRB15G25KT 2SM -TSRA BR 
     FM152300 18007KT P6SM SCT050 BKN100 
     FM160200 17007KT P6SM VCSH BKN050 OVC100 
     FM160400 17008KT P6SM -SHRA OVC040 
     TEMPO 1606/1610 4SM SHRA BR OVC025 
     FM161400 19011KT P6SM SCT050 OVC100
       
KDBQ 152118Z 1521/1618 VRB03KT P6SM VCSH OVC030 
     FM160000 VRB03KT 6SM BR SCT025 BKN200 
     FM160900 VRB03KT 2SM BR SCT003 BKN040 
     FM161400 36005KT P6SM SCT003 BKN030
       
KDCA 152031Z 1521/1624 29009KT P6SM SCT050 BKN250 
     FM160000 22004KT P6SM FEW250 
     FM161600 18006KT P6SM BKN150
       
KDDC 151728Z 1518/1618 15008KT P6SM FEW120
       
KDEC 152204Z 1522/1618 20005KT 1 1/2SM +RA BR FEW025 BKN035 
     FM152300 18009KT P6SM VCTS BKN035CB OVC050 
     FM160100 18006KT P6SM BKN035 
     FM160700 VRB03KT 5SM BR SCT005 BKN050 
     FM161000 VRB04KT 4SM BR BKN006 
     FM161400 VRB04KT P6SM OVC020
       
KDEN 152203Z 1522/1624 12008KT P6SM FEW120 SCT250 
     FM160100 15010G18KT P6SM FEW090 SCT140 
     FM160400 19013KT P6SM SCT140 BKN200 
     FM160700 26008KT P6SM SCT200 
     FM161400 35007KT P6SM SCT200 
     FM162100 09007KT P6SM SCT220
       
KDET 151727Z 1518/1618 23010KT P6SM FEW040 OVC200 
     FM160000 23006KT P6SM SCT045 BKN070 OVC150 
     FM160600 20005KT P6SM VCSH OVC045 
     FM160900 20009KT 4SM -SHRA SCT020 OVC040 
     TEMPO 1614/1618 2SM RA SCT012 OVC020
       
KDFW 152050Z 1521/1624 19011KT P6SM FEW060
       
KDHN 151722Z 1518/1618 15006KT P6SM SCT025 
     FM151900 16006KT P6SM VCTS SCT040CB 
     TEMPO 1520/1523 VRB15G25KT 3SM TSRA BKN025CB 
     FM160100 17005KT P6SM BKN250
       
KDHT 151733Z 1518/1618 15006KT P6SM FEW080 FEW200 
     FM152300 17011KT P6SM VCTS FEW090CB SCT250 
     FM160200 09011KT P6SM TSRA BKN070CB BKN110 
     FM160600 04009KT P6SM BKN050 OVC110 
     FM161300 26006KT P6SM FEW070 SCT120
       
KDIK 151726Z 1518/1618 16010KT P6SM SKC 
     FM160100 16005KT P6SM SKC
       
TAF KDLF 151800Z 1518/1624 15010G15KT 9999 SCT030 BKN200 QNH2983INS 
     BECMG 1600/1601 14009KT 9999 SCT070 SCT250 QNH2984INS 
     BECMG 1612/1613 14009KT 9999 SCT020 BKN040 QNH2990INS 
     TEMPO 1614/1617 BKN015 
     BECMG 1616/1617 15009KT 9999 FEW050 SCT250 QNH2996INS TX36/1521Z TN25/1612Z
       
KDLH 151720Z 1518/1618 10006KT P6SM SCT015 
     FM160600 09003KT 4SM BR SKC 
     FM160900 VRB02KT 1/2SM FG SCT001 
     FM161300 VRB02KT 1SM BR SCT002 
     FM161500 VRB02KT 4SM BR SCT006 
     FM161700 VRB02KT P6SM SKC
       
KDLS 151720Z 1518/1618 33008G15KT 4SM HZ FU FEW160 SCT200 
     FM160100 32010G17KT 5SM HZ FU FEW120 BKN160 
     FM161100 32008KT 4SM HZ FU FEW160 BKN200 
     FM161700 32014G22KT 6SM HZ FEW160
       
TAF KDMA 1522/1704 06009KT 9999 VCTS SCT080CB SCT150 QNH2995INS 
     BECMG 1602/1603 VRB06KT 9999 VCSH BKN100 QNH3000INS 
     TEMPO 1606/1609 9000 -SHRA 
     BECMG 1612/1613 VRB06KT 9999 VCTS SCT100CB QNH3005INS 
     TEMPO 1613/1616 9000 -TSRA BKN080CB 
     BECMG 1618/1619 33009KT 9999 NSW FEW100 QNH3000INS 
     BECMG 1620/1621 32012KT 9999 VCSH SCT100 QNH2999INS TX36/1523Z TN23/1614Z
       
KDMN 151736Z 1518/1618 15008KT P6SM SCT080 BKN200 
     FM160300 25008KT P6SM FEW100 BKN150 OVC220
       
KDNL 152037Z 1521/1618 VRB05KT P6SM SCT060 BKN200 
     FM160200 00000KT P6SM FEW250 
     FM161500 VRB04KT P6SM FEW050
       
TAF KDOV 151600Z 1516/1622 27010G15KT 9999 SCT040 QNH2994INS 
     BECMG 1520/1521 25009KT 9999 FEW040 QNH2994INS TX30/1518Z TN23/1609Z
       
KDPA 152102Z 1521/1618 15009KT P6SM VCTS SCT025 BKN045CB 
     TEMPO 1521/1601 3SM SHRA BKN025 
     FM160100 15007KT P6SM VCSH SCT020 BKN035 
     FM160400 14004KT 5SM BR SCT010 OVC020 
     FM160800 VRB03KT 3SM BR OVC006 
     FM161600 35005KT P6SM BKN010
       
KDRO 151735Z 1518/1618 00000KT P6SM OVC120 
     FM151900 25006KT P6SM SCT090 BKN140 
     FM152200 28009KT P6SM FEW100 SCT140 
     FM160200 01007KT P6SM SCT090 BKN140
       
KDRT 151733Z 1518/1618 12011KT P6SM FEW025 FEW250 
     FM161500 14011KT P6SM BKN025
       
KDSM 151732Z 1518/1618 04004KT P6SM VCSH SCT020 SCT045 BKN070 
     FM152100 02004KT P6SM VCTS BKN050CB 
     FM160100 04004KT P6SM BKN110 
     FM161200 VRB03KT P6SM BKN020 
     FM161700 35004KT P6SM BKN060
       
KDTW 152144Z 1522/1624 21010KT P6SM VCSH FEW045 OVC200 
     FM160000 23006KT P6SM SCT045 BKN070 OVC150 
     FM160600 20005KT P6SM VCSH OVC045 
     FM160900 20009KT 4SM -SHRA SCT020 OVC040 
     TEMPO 1614/1618 2SM RA SCT012 OVC020 
     FM161800 18008KT 5SM -SHRA OVC020
       
KDUG 152024Z 1520/1618 28008KT P6SM VCTS SCT070CB BKN110 
     TEMPO 1520/1522 VRB15G30KT 4SM -TSRA SCT040CB BKN060 
     FM160000 26008KT P6SM SCT090 BKN120 
     FM160500 13005KT P6SM SCT080 BKN200
       
KDUJ 151732Z 1518/1618 23006KT P6SM SCT040 BKN200 
     FM161200 VRB03KT P6SM BKN050 
     FM161700 18007KT P6SM -SHRA VCTS OVC035CB
       
KDVL 151720Z 1518/1618 22009KT P6SM SKC 
     FM160200 VRB05KT P6SM SKC
       
TAF KDYS 151600Z 1516/1622 20010G18KT 9999 FEW070 QNH2991INS 
     BECMG 1600/1601 18009KT 9999 SKC QNH2992INS 
     BECMG 1606/1607 18006KT 9999 SKC 510052 QNH3000INS 
     BECMG 1615/1616 20010G15KT 9999 SKC QNH2998INS TX35/1521Z TN23/1612Z